Terminal Aerodrome Forecast
Issued by NWS

Home | Current Version | Previous Version | Text Only | Print | Product List | Glossary On
Versions: 1 2 3 4 5 6 7 8 9 10 11 12 13 14 15
000
FTUS45 KTFX 011720
TAFCTB
TAF
KCTB 011720Z 0118/0218 24018G25KT P6SM SKC
     FM020200 26010KT P6SM BKN250
     FM021600 24018G25KT P6SM BKN250=

USA.gov is the U.S. government's official web portal to all federal, state and local government web resources and services.